Time;durP1;ratioP1;P1;durP2;ratioP2;P2;SDS_P1;SDS_P2;PMS_P1;PMS_P2;Temp;Humidity;BMP_temperature;BMP_pressure;BME280_temperature;BME280_humidity;BME280_pressure;Samples;Min_cycle;Max_cycle;Signal;HPM_P1;HPM_P2
2021/05/01 00:00:27;;;;;;;0.60;0.60;;;;;;;4.87;89.26;96548.87;29373;349;63005;-67
2021/05/01 00:00:58;;;;;;;0.60;0.60;;;;;;;4.87;88.99;96548.87;29373;197;63009;-66
2021/05/01 00:01:30;;;;;;;0.60;0.60;;;;;;;4.88;89.09;96547.78;29373;209;63005;-65
2021/05/01 00:02:01;;;;;;;0.60;0.60;;;;;;;4.87;88.85;96538.94;29373;288;63009;-67
2021/05/01 00:02:32;;;;;;;0.60;0.60;;;;;;;4.88;89.27;96547.78;29372;323;64009;-67
2021/05/01 00:03:04;;;;;;;0.60;0.60;;;;;;;4.88;88.94;96542.41;29373;373;63025;-66
2021/05/01 00:03:35;;;;;;;0.60;0.60;;;;;;;4.89;88.94;96539.47;29373;284;63004;-67
2021/05/01 00:04:06;;;;;;;0.60;0.60;;;;;;;4.89;89.11;96544.03;29373;225;63009;-66
2021/05/01 00:04:37;;;;;;;0.70;0.70;;;;;;;4.88;89.16;96537.03;29373;204;63008;-66
2021/05/01 00:05:10;;;;;;;0.60;0.60;;;;;;;4.88;89.36;96531.66;29373;250;63004;-66
2021/05/01 00:05:44;;;;;;;0.60;0.60;;;;;;;4.85;89.61;96542.97;29373;203;63004;-64
2021/05/01 00:06:15;;;;;;;0.60;0.60;;;;;;;4.86;89.23;96533.81;29373;220;63008;-66
2021/05/01 00:06:48;;;;;;;0.60;0.60;;;;;;;4.86;89.25;96544.56;29373;293;63004;-67
2021/05/01 00:07:20;;;;;;;0.60;0.60;;;;;;;4.87;89.20;96535.44;29373;199;63009;-67
2021/05/01 00:07:51;;;;;;;0.60;0.60;;;;;;;4.88;89.13;96539.72;29372;291;64009;-66
2021/05/01 00:08:23;;;;;;;0.60;0.60;;;;;;;4.89;89.26;96542.16;29373;305;63009;-66
2021/05/01 00:08:54;;;;;;;0.60;0.60;;;;;;;4.88;88.90;96543.22;29373;212;63009;-67
2021/05/01 00:09:25;;;;;;;0.60;0.60;;;;;;;4.88;89.23;96543.22;29373;279;63009;-66
2021/05/01 00:09:56;;;;;;;0.60;0.60;;;;;;;4.88;89.10;96547.78;29373;380;63005;-67
2021/05/01 00:10:29;;;;;;;0.57;0.57;;;;;;;4.89;89.45;96549.41;29395;222;63020;-67
2021/05/01 00:11:01;;;;;;;0.60;0.60;;;;;;;4.89;89.34;96539.47;29371;381;64009;-66
2021/05/01 00:11:33;;;;;;;0.60;0.60;;;;;;;4.89;89.09;96542.16;29373;250;63009;-65
2021/05/01 00:12:05;;;;;;;0.60;0.60;;;;;;;4.90;89.21;96540.28;29373;318;63004;-67
2021/05/01 00:12:40;;;;;;;0.60;0.60;;;;;;;4.90;89.44;96542.97;29373;247;63009;-66
2021/05/01 00:13:11;;;;;;;0.60;0.60;;;;;;;4.91;89.19;96547.28;29373;205;63004;-66
2021/05/01 00:13:42;;;;;;;0.60;0.60;;;;;;;4.91;89.14;96545.38;29373;226;63008;-66
2021/05/01 00:14:13;;;;;;;0.50;0.50;;;;;;;4.91;89.34;96542.69;29373;213;63004;-66
2021/05/01 00:14:44;;;;;;;0.60;0.60;;;;;;;4.92;89.58;96549.69;29395;276;63009;-66
2021/05/01 00:15:16;;;;;;;0.60;0.60;;;;;;;4.94;89.29;96546.75;29395;203;63001;-66
2021/05/01 00:15:47;;;;;;;0.60;0.60;;;;;;;4.95;89.24;96551.03;29394;252;64014;-66
2021/05/01 00:16:19;;;;;;;0.60;0.60;;;;;;;4.94;89.63;96552.94;29395;263;63005;-66
2021/05/01 00:16:50;;;;;;;0.60;0.60;;;;;;;4.97;89.53;96546.22;29395;276;63009;-67
2021/05/01 00:17:21;;;;;;;0.60;0.60;;;;;;;4.98;89.29;96553.22;29373;210;63005;-66
2021/05/01 00:17:52;;;;;;;0.70;0.70;;;;;;;4.98;89.21;96554.00;29373;339;63009;-66
2021/05/01 00:18:23;;;;;;;0.60;0.60;;;;;;;4.99;89.27;96560.19;29373;373;63005;-64
2021/05/01 00:18:56;;;;;;;0.60;0.60;;;;;;;4.99;89.34;96554.81;29373;202;63009;-66
2021/05/01 00:19:29;;;;;;;0.60;0.60;;;;;;;5.01;89.33;96558.06;29373;333;63004;-66
2021/05/01 00:20:00;;;;;;;0.60;0.60;;;;;;;5.01;89.44;96555.37;29371;270;64013;-67
2021/05/01 00:20:32;;;;;;;0.60;0.60;;;;;;;5.00;89.37;96551.88;29373;197;63004;-66
2021/05/01 00:21:04;;;;;;;0.60;0.60;;;;;;;5.01;89.22;96550.00;29372;196;63009;-66
2021/05/01 00:21:35;;;;;;;0.60;0.60;;;;;;;5.01;89.05;96553.50;29373;197;63004;-67
2021/05/01 00:22:06;;;;;;;0.60;0.60;;;;;;;5.01;89.18;96553.50;29373;351;63009;-66
2021/05/01 00:22:37;;;;;;;0.60;0.60;;;;;;;5.02;89.09;96548.91;29373;236;63005;-67
2021/05/01 00:23:09;;;;;;;0.60;0.60;;;;;;;5.02;88.93;96548.91;29395;295;63009;-66
2021/05/01 00:23:40;;;;;;;0.60;0.60;;;;;;;5.02;89.18;96544.34;29373;231;63005;-66
2021/05/01 00:24:11;;;;;;;0.60;0.60;;;;;;;5.02;89.26;96548.91;29373;322;63009;-68
2021/05/01 00:24:43;;;;;;;0.60;0.60;;;;;;;5.03;89.09;96545.16;29395;362;63005;-64
2021/05/01 00:25:14;;;;;;;0.60;0.60;;;;;;;5.02;89.14;96543.53;29371;326;64013;-66
2021/05/01 00:25:46;;;;;;;0.60;0.60;;;;;;;5.03;89.07;96545.16;29373;240;63005;-67
2021/05/01 00:26:17;;;;;;;0.60;0.60;;;;;;;5.02;88.94;96544.34;29373;206;63009;-66
2021/05/01 00:26:48;;;;;;;0.60;0.60;;;;;;;5.03;89.12;96545.16;29373;338;63004;-66
2021/05/01 00:27:19;;;;;;;0.60;0.60;;;;;;;5.03;89.12;96550.53;29373;215;63009;-66
2021/05/01 00:27:51;;;;;;;0.60;0.60;;;;;;;5.02;89.02;96548.91;29373;249;63007;-64
2021/05/01 00:28:22;;;;;;;0.62;0.62;;;;;;;5.01;89.15;96548.13;29373;334;63009;-65
2021/05/01 00:28:53;;;;;;;0.60;0.60;;;;;;;5.03;89.25;96547.84;29373;202;63004;-66
2021/05/01 00:29:25;;;;;;;0.60;0.60;;;;;;;5.03;89.18;96545.16;29373;257;63008;-67
2021/05/01 00:29:56;;;;;;;0.60;0.60;;;;;;;5.03;88.88;96545.16;29373;241;63005;-67
2021/05/01 00:30:27;;;;;;;0.60;0.60;;;;;;;5.03;89.32;96545.16;29371;314;64014;-65
2021/05/01 00:30:59;;;;;;;0.60;0.60;;;;;;;5.04;89.16;96542.19;29373;223;63005;-66
2021/05/01 00:31:30;;;;;;;0.60;0.60;;;;;;;5.04;88.95;96541.41;29371;233;64013;-67
2021/05/01 00:32:02;;;;;;;0.57;0.57;;;;;;;5.03;88.81;96539.78;29373;344;63005;-65
2021/05/01 00:32:35;;;;;;;0.60;0.60;;;;;;;5.02;89.14;96541.66;29373;253;63005;-63
2021/05/01 00:33:07;;;;;;;0.60;0.60;;;;;;;5.03;88.91;96539.78;29373;305;63004;-66
2021/05/01 00:33:39;;;;;;;0.60;0.60;;;;;;;5.02;89.07;96538.97;29373;351;63009;-66
2021/05/01 00:34:10;;;;;;;0.60;0.60;;;;;;;5.03;88.95;96537.09;29373;239;63004;-65
2021/05/01 00:34:45;;;;;;;0.60;0.60;;;;;;;5.02;88.99;96533.59;29373;300;63009;-67
2021/05/01 00:35:16;;;;;;;0.60;0.60;;;;;;;5.01;89.08;96531.97;29373;306;63004;-65
2021/05/01 00:35:48;;;;;;;0.60;0.60;;;;;;;5.01;89.36;96531.16;29373;295;63008;-66
2021/05/01 00:36:22;;;;;;;0.60;0.60;;;;;;;5.00;89.27;96532.25;29371;317;64008;-67
2021/05/01 00:36:53;;;;;;;0.60;0.60;;;;;;;5.00;89.13;96529.56;29373;329;63008;-67
2021/05/01 00:37:24;;;;;;;1.20;1.20;;;;;;;5.00;89.35;96534.94;29373;316;63005;-66
2021/05/01 00:37:55;;;;;;;0.60;0.60;;;;;;;5.00;89.35;96524.97;29373;239;63009;-67
2021/05/01 00:38:26;;;;;;;0.60;0.60;;;;;;;5.01;89.26;96525.78;29373;246;63005;-67
2021/05/01 00:38:57;;;;;;;0.60;0.60;;;;;;;5.01;89.28;96534.66;29373;212;63009;-66
2021/05/01 00:39:28;;;;;;;0.60;0.60;;;;;;;5.02;89.22;96525.53;29373;233;63005;-67
2021/05/01 00:40:02;;;;;;;0.60;0.60;;;;;;;5.05;88.94;96534.94;29373;238;63009;-66
2021/05/01 00:40:38;;;;;;;0.60;0.60;;;;;;;5.04;88.81;96530.63;29395;279;63004;-67
2021/05/01 00:41:12;;;;;;;0.60;0.60;;;;;;;5.02;88.72;96527.41;29373;317;63009;-66
2021/05/01 00:41:45;;;;;;;0.60;0.60;;;;;;;5.02;88.58;96522.84;29371;384;64009;-66
2021/05/01 00:42:17;;;;;;;0.60;0.60;;;;;;;5.03;88.52;96529.03;29373;275;63009;-65
2021/05/01 00:42:48;;;;;;;0.60;0.60;;;;;;;5.03;88.74;96523.66;29373;297;63004;-63
2021/05/01 00:43:20;;;;;;;0.70;0.70;;;;;;;5.02;88.66;96528.22;29373;202;63008;-65
2021/05/01 00:43:51;;;;;;;0.60;0.60;;;;;;;5.03;88.64;96523.66;29373;324;63005;-65
2021/05/01 00:44:22;;;;;;;0.60;0.60;;;;;;;5.03;88.46;96523.66;29373;240;63019;-66
2021/05/01 00:44:53;;;;;;;0.60;0.60;;;;;;;5.03;88.50;96524.44;29373;254;63005;-63
2021/05/01 00:45:25;;;;;;;0.60;0.60;;;;;;;5.03;88.56;96529.03;29373;426;63009;-66
2021/05/01 00:46:03;;;;;;;0.60;0.60;;;;;;;5.05;88.35;96532.25;29373;272;63005;-66
2021/05/01 00:46:35;;;;;;;0.60;0.60;;;;;;;5.03;88.56;96527.16;29371;372;64013;-67
2021/05/01 00:47:06;;;;;;;0.50;0.50;;;;;;;5.03;88.51;96529.03;29371;203;64009;-66
2021/05/01 00:47:38;;;;;;;4.62;4.40;;;;;;;5.04;88.62;96530.63;29373;234;63005;-66
2021/05/01 00:48:09;;;;;;;0.60;0.60;;;;;;;5.04;88.58;96530.63;29373;204;63004;-67
2021/05/01 00:48:41;;;;;;;0.60;0.60;;;;;;;5.06;88.73;96523.13;29373;226;63009;-66
2021/05/01 00:49:13;;;;;;;0.60;0.60;;;;;;;5.07;88.55;96532.00;29395;331;63004;-66
2021/05/01 00:49:44;;;;;;;0.60;0.60;;;;;;;5.07;88.59;96524.72;29373;256;63009;-67
2021/05/01 00:50:18;;;;;;;0.60;0.60;;;;;;;5.10;88.66;96529.56;29373;196;63004;-64
2021/05/01 00:50:50;;;;;;;0.60;0.60;;;;;;;5.12;88.85;96532.81;29371;258;64013;-67
2021/05/01 00:51:21;;;;;;;0.60;0.60;;;;;;;5.12;88.92;96527.44;29371;375;64005;-66
2021/05/01 00:51:53;;;;;;;0.60;0.60;;;;;;;5.12;88.70;96524.75;29373;279;63009;-67
2021/05/01 00:52:24;;;;;;;0.60;0.60;;;;;;;5.12;88.88;96532.81;29373;282;63005;-67
2021/05/01 00:52:55;;;;;;;0.55;0.55;;;;;;;5.12;88.89;96532.81;29373;225;63009;-67
2021/05/01 00:53:27;;;;;;;0.60;0.60;;;;;;;5.12;88.58;96532.81;29373;272;63005;-66
2021/05/01 00:53:58;;;;;;;0.50;0.50;;;;;;;5.10;89.14;96529.56;29373;502;63009;-67
2021/05/01 00:54:30;;;;;;;0.60;0.60;;;;;;;5.07;88.98;96530.09;29373;376;63005;-68
2021/05/01 00:55:06;;;;;;;0.60;0.60;;;;;;;5.06;89.01;96525.81;29372;202;63009;-67
2021/05/01 00:55:40;;;;;;;0.57;0.57;;;;;;;5.05;89.07;96519.63;29373;227;63004;-67
2021/05/01 00:56:11;;;;;;;0.60;0.60;;;;;;;5.04;89.31;96526.06;29373;206;63009;-66
2021/05/01 00:56:42;;;;;;;0.60;0.60;;;;;;;5.04;89.34;96525.25;29371;236;64009;-67
2021/05/01 00:57:14;;;;;;;0.60;0.60;;;;;;;5.03;89.27;96526.34;29373;239;63009;-67
2021/05/01 00:57:46;;;;;;;0.60;0.60;;;;;;;5.03;89.06;96523.66;29373;297;63004;-66
2021/05/01 00:58:17;;;;;;;0.60;0.60;;;;;;;5.03;89.26;96523.66;29373;329;63008;-67
2021/05/01 00:58:48;;;;;;;0.60;0.60;;;;;;;5.03;89.22;96529.03;29373;333;63004;-66
2021/05/01 00:59:20;;;;;;;0.60;0.60;;;;;;;5.04;89.03;96527.94;29372;276;63009;-66
2021/05/01 00:59:51;;;;;;;0.60;0.60;;;;;;;5.03;89.02;96523.66;29373;295;63005;-66
2021/05/01 01:01:18;;;;;;;0.60;0.60;;;;;;;5.04;88.80;96526.06;29373;258;63005;-67
2021/05/01 01:01:51;;;;;;;0.60;0.60;;;;;;;5.02;88.80;96512.09;29371;321;64013;-66
2021/05/01 01:02:26;;;;;;;0.52;0.52;;;;;;;5.01;88.76;96521.22;29373;206;63005;-64
2021/05/01 01:02:58;;;;;;;0.60;0.60;;;;;;;4.99;88.76;96511.81;29371;224;64013;-64
2021/05/01 01:03:30;;;;;;;0.55;0.55;;;;;;;4.99;88.79;96514.50;29373;218;63004;-66
2021/05/01 01:04:01;;;;;;;0.55;0.55;;;;;;;4.97;88.86;96512.06;29373;256;63009;-66
2021/05/01 01:04:32;;;;;;;0.60;0.60;;;;;;;4.98;88.84;96511.00;29373;396;63004;-67
2021/05/01 01:05:04;;;;;;;0.50;0.50;;;;;;;4.98;89.01;96515.56;29373;202;63009;-67
2021/05/01 01:05:36;;;;;;;0.60;0.60;;;;;;;4.98;88.88;96510.19;29373;202;63004;-65
2021/05/01 01:06:08;;;;;;;0.60;0.60;;;;;;;4.98;89.04;96513.69;29373;366;63008;-67
2021/05/01 01:06:40;;;;;;;0.60;0.60;;;;;;;4.97;88.83;96514.75;29373;327;63005;-67
2021/05/01 01:07:11;;;;;;;0.60;0.60;;;;;;;4.98;89.15;96518.25;29373;300;63009;-67
2021/05/01 01:07:42;;;;;;;0.60;0.60;;;;;;;4.98;88.95;96520.94;29373;344;63005;-67
2021/05/01 01:08:14;;;;;;;0.50;0.50;;;;;;;5.00;89.14;96524.19;29371;212;64013;-65
2021/05/01 01:08:46;;;;;;;0.60;0.60;;;;;;;5.01;88.84;96523.09;29373;289;63005;-63
2021/05/01 01:09:17;;;;;;;0.60;0.60;;;;;;;5.02;89.20;96522.03;29373;202;63009;-66
2021/05/01 01:09:50;;;;;;;0.60;0.60;;;;;;;5.02;88.88;96522.03;29373;355;63005;-65
2021/05/01 01:10:21;;;;;;;0.60;0.60;;;;;;;5.02;88.94;96522.84;29373;230;63009;-65
2021/05/01 01:10:53;;;;;;;0.60;0.60;;;;;;;5.03;88.97;96526.34;29373;298;63004;-65
2021/05/01 01:11:24;;;;;;;0.60;0.60;;;;;;;5.04;89.06;96525.25;29373;366;63025;-66
2021/05/01 01:11:56;;;;;;;0.60;0.60;;;;;;;5.06;88.97;96525.81;29373;323;63004;-67
2021/05/01 01:12:27;;;;;;;0.60;0.60;;;;;;;5.07;89.16;96530.09;29373;263;63009;-67
2021/05/01 01:12:59;;;;;;;0.60;0.60;;;;;;;5.07;89.12;96532.81;29373;261;63004;-67
2021/05/01 01:13:31;;;;;;;0.60;0.60;;;;;;;5.09;89.34;96527.97;29371;214;64013;-66
2021/05/01 01:14:06;;;;;;;0.60;0.60;;;;;;;5.07;89.26;96530.09;29371;222;64007;-67
2021/05/01 01:14:38;;;;;;;0.60;0.60;;;;;;;5.08;89.13;96530.91;29373;333;63009;-66
2021/05/01 01:15:21;;;;;;;0.60;0.60;;;;;;;5.06;89.07;96533.87;29373;358;63005;-66
2021/05/01 01:15:52;;;;;;;0.60;0.60;;;;;;;5.07;89.19;96535.50;29373;340;63009;-66
2021/05/01 01:16:24;;;;;;;0.60;0.60;;;;;;;5.07;89.15;96532.00;29373;211;63005;-66
2021/05/01 01:16:57;;;;;;;0.60;0.60;;;;;;;5.08;88.99;96534.41;29373;225;63009;-66
2021/05/01 01:17:28;;;;;;;0.60;0.60;;;;;;;5.09;89.19;96538.72;29373;364;63005;-66
2021/05/01 01:18:00;;;;;;;0.60;0.60;;;;;;;5.08;88.95;96537.09;29373;317;63009;-67
2021/05/01 01:18:32;;;;;;;0.60;0.60;;;;;;;5.07;89.36;96530.09;29373;325;63004;-66
2021/05/01 01:19:04;;;;;;;0.60;0.60;;;;;;;5.06;89.07;96528.50;29371;327;64013;-66
2021/05/01 01:19:37;;;;;;;0.60;0.60;;;;;;;5.07;88.91;96530.09;29373;326;63004;-67
2021/05/01 01:20:10;;;;;;;0.60;0.60;;;;;;;5.06;89.10;96523.13;29373;202;63009;-66
2021/05/01 01:20:42;;;;;;;0.60;0.60;;;;;;;5.05;89.03;96524.19;29373;220;63004;-66
2021/05/01 01:21:13;;;;;;;0.60;0.60;;;;;;;5.02;89.28;96522.03;29373;220;63008;-66
2021/05/01 01:21:47;;;;;;;0.60;0.60;;;;;;;5.02;89.13;96527.41;29373;244;63005;-66
2021/05/01 01:22:20;;;;;;;0.60;0.60;;;;;;;5.01;89.20;96520.41;29373;202;63009;-67
2021/05/01 01:22:52;;;;;;;0.60;0.60;;;;;;;5.01;89.15;96523.09;29373;297;63005;-66
2021/05/01 01:23:23;;;;;;;0.60;0.60;;;;;;;5.00;89.24;96524.19;29373;336;63009;-67
2021/05/01 01:23:55;;;;;;;0.60;0.60;;;;;;;4.99;89.57;96530.63;29373;222;63005;-66
2021/05/01 01:24:30;;;;;;;0.60;0.60;;;;;;;4.99;89.47;96525.25;29371;202;64013;-65
2021/05/01 01:25:02;;;;;;;0.50;0.50;;;;;;;4.99;89.24;96538.69;29373;214;63004;-66
2021/05/01 01:25:33;;;;;;;0.52;0.52;;;;;;;4.99;89.24;96525.25;29373;215;63009;-67
2021/05/01 01:26:04;;;;;;;0.60;0.60;;;;;;;5.00;89.33;96529.56;29373;299;63004;-66
2021/05/01 01:26:37;;;;;;;0.50;0.50;;;;;;;5.00;89.40;96524.19;29373;248;63009;-66
2021/05/01 01:27:09;;;;;;;0.60;0.60;;;;;;;4.99;89.49;96519.88;29373;264;63004;-66
2021/05/01 01:27:43;;;;;;;0.60;0.60;;;;;;;4.98;89.48;96520.94;29373;282;63008;-66
2021/05/01 01:28:15;;;;;;;0.60;0.60;;;;;;;4.98;89.35;96520.94;29373;241;63004;-67
2021/05/01 01:28:48;;;;;;;0.60;0.60;;;;;;;4.98;89.35;96521.75;29373;237;63008;-66
2021/05/01 01:29:19;;;;;;;0.60;0.60;;;;;;;4.97;89.34;96513.94;29373;249;63005;-64
2021/05/01 01:29:51;;;;;;;0.60;0.60;;;;;;;4.96;89.58;96518.53;29371;367;64014;-66
2021/05/01 01:30:30;;;;;;;0.60;0.60;;;;;;;4.95;89.47;96513.41;29373;343;63005;-66
2021/05/01 01:31:01;;;;;;;0.60;0.60;;;;;;;4.97;89.33;96511.25;29373;259;63009;-67
2021/05/01 01:31:33;;;;;;;0.60;0.60;;;;;;;4.95;89.48;96511.53;29373;288;63005;-66
2021/05/01 01:32:07;;;;;;;0.60;0.60;;;;;;;4.94;89.58;96519.84;29373;224;63009;-66
2021/05/01 01:32:39;;;;;;;0.60;0.60;;;;;;;4.94;89.30;96512.59;29373;335;63004;-67
2021/05/01 01:33:13;;;;;;;0.60;0.60;;;;;;;4.96;89.32;96523.09;29373;235;63009;-66
2021/05/01 01:33:44;;;;;;;0.68;0.68;;;;;;;4.96;89.30;96515.03;29371;323;64009;-67
2021/05/01 01:34:17;;;;;;;0.60;0.60;;;;;;;4.97;89.51;96513.94;29373;241;63009;-67
2021/05/01 01:34:48;;;;;;;0.50;0.50;;;;;;;4.99;89.22;96518.00;29373;217;63011;-66
2021/05/01 01:35:21;;;;;;;0.60;0.60;;;;;;;4.99;89.21;96518.00;29373;279;63008;-66
2021/05/01 01:35:52;;;;;;;0.60;0.60;;;;;;;5.01;89.10;96517.72;29371;349;64018;-66
2021/05/01 01:36:23;;;;;;;0.60;0.60;;;;;;;5.02;89.23;96522.03;29373;321;63009;-66
2021/05/01 01:36:55;;;;;;;0.50;0.50;;;;;;;5.00;89.24;96524.19;29373;290;63005;-66
2021/05/01 01:37:26;;;;;;;0.60;0.60;;;;;;;5.01;89.18;96520.41;29373;222;63009;-67
2021/05/01 01:37:58;;;;;;;0.60;0.60;;;;;;;5.01;89.14;96523.09;29373;199;63005;-66
2021/05/01 01:38:29;;;;;;;0.57;0.57;;;;;;;5.01;89.23;96525.78;29373;328;63009;-67
2021/05/01 01:39:00;;;;;;;0.60;0.60;;;;;;;4.99;89.24;96518.00;29373;317;63005;-63
2021/05/01 01:39:33;;;;;;;0.60;0.60;;;;;;;5.00;88.95;96526.88;29371;356;64013;-66
2021/05/01 01:40:06;;;;;;;0.60;0.60;;;;;;;4.98;89.18;96532.50;29371;295;64009;-67
2021/05/01 01:40:38;;;;;;;0.60;0.60;;;;;;;4.99;88.89;96523.38;29373;197;63009;-65
2021/05/01 01:41:10;;;;;;;0.60;0.60;;;;;;;4.99;88.78;96522.56;29373;360;63004;-67
2021/05/01 01:41:41;;;;;;;0.60;0.60;;;;;;;4.98;89.00;96524.44;29373;272;63009;-66
2021/05/01 01:42:12;;;;;;;0.60;0.60;;;;;;;4.98;89.01;96520.94;29373;257;63004;-67
2021/05/01 01:42:43;;;;;;;0.60;0.60;;;;;;;4.97;89.00;96525.50;29373;197;63013;-67
2021/05/01 01:43:15;;;;;;;0.50;0.50;;;;;;;4.97;89.29;96524.69;29373;283;63004;-66
2021/05/01 01:43:48;;;;;;;0.60;0.60;;;;;;;4.95;89.24;96526.84;29373;333;63009;-67
2021/05/01 01:44:19;;;;;;;0.60;0.60;;;;;;;4.94;89.17;96525.22;29373;197;63005;-67
2021/05/01 01:44:50;;;;;;;0.55;0.55;;;;;;;4.95;89.27;96532.22;29372;202;63009;-67
2021/05/01 01:45:27;;;;;;;0.60;0.60;;;;;;;4.93;89.27;96524.44;29371;360;64009;-64
2021/05/01 01:46:00;;;;;;;0.60;0.60;;;;;;;4.92;89.43;96522.81;29373;238;63009;-67
2021/05/01 01:46:33;;;;;;;0.60;0.60;;;;;;;4.91;89.41;96515.00;29373;296;63005;-66
2021/05/01 01:47:04;;;;;;;0.60;0.60;;;;;;;4.91;89.62;96520.38;29373;226;63009;-67
2021/05/01 01:47:36;;;;;;;0.60;0.60;;;;;;;4.91;89.53;96528.44;29373;313;63004;-67
2021/05/01 01:48:09;;;;;;;0.60;0.60;;;;;;;4.93;89.38;96523.63;29373;327;63004;-67
2021/05/01 01:48:41;;;;;;;0.60;0.60;;;;;;;4.93;89.35;96524.44;29372;203;63004;-66
2021/05/01 01:49:12;;;;;;;0.60;0.60;;;;;;;4.95;89.27;96524.97;29373;254;63009;-66
2021/05/01 01:49:43;;;;;;;0.60;0.60;;;;;;;4.95;89.59;96532.22;29373;218;63004;-67
2021/05/01 01:50:17;;;;;;;0.60;0.60;;;;;;;4.96;89.49;96533.84;29373;273;63008;-66
2021/05/01 01:50:49;;;;;;;0.60;0.60;;;;;;;4.96;89.31;96525.78;29371;286;64008;-68
2021/05/01 01:51:23;;;;;;;0.60;0.60;;;;;;;4.96;89.29;96533.84;29373;365;63009;-66
2021/05/01 01:51:55;;;;;;;0.60;0.60;;;;;;;4.96;89.29;96529.28;29371;312;64009;-67
2021/05/01 01:52:26;;;;;;;0.60;0.60;;;;;;;4.98;89.36;96531.69;29373;340;63009;-64
2021/05/01 01:52:57;;;;;;;0.60;0.60;;;;;;;4.98;89.45;96531.69;29395;200;63005;-66
2021/05/01 01:53:28;;;;;;;0.60;0.60;;;;;;;4.98;89.39;96537.06;29395;198;63009;-67
2021/05/01 01:53:59;;;;;;;0.60;0.60;;;;;;;4.98;89.29;96526.31;29373;202;63005;-66
2021/05/01 01:54:31;;;;;;;0.60;0.60;;;;;;;4.99;89.33;96533.31;29373;383;63005;-67
2021/05/01 01:55:04;;;;;;;2.53;2.42;;;;;;;5.00;89.14;96534.94;29373;220;63005;-67
2021/05/01 01:55:36;;;;;;;0.60;0.60;;;;;;;5.00;89.29;96543.00;29371;213;64013;-67
2021/05/01 01:56:08;;;;;;;0.60;0.60;;;;;;;5.00;89.43;96537.62;29373;287;63004;-63
2021/05/01 01:56:39;;;;;;;0.60;0.60;;;;;;;5.00;89.23;96540.31;29373;230;63009;-67
2021/05/01 01:57:10;;;;;;;0.57;0.57;;;;;;;5.01;89.18;96547.31;29371;342;64009;-67
2021/05/01 01:57:42;;;;;;;0.60;0.60;;;;;;;5.01;89.35;96540.03;29373;353;63011;-68
2021/05/01 01:58:13;;;;;;;0.60;0.60;;;;;;;5.01;89.16;96536.53;29373;375;63004;-67
2021/05/01 01:58:44;;;;;;;0.60;0.60;;;;;;;5.03;89.54;96539.78;29373;336;63009;-66
2021/05/01 01:59:16;;;;;;;0.60;0.60;;;;;;;5.04;89.36;96544.09;29373;262;63005;-67
2021/05/01 01:59:47;;;;;;;0.60;0.60;;;;;;;5.04;89.40;96536.00;29373;228;63014;-67
2021/05/01 02:00:25;;;;;;;0.60;0.60;;;;;;;5.03;89.26;96537.91;29371;218;64009;-67
2021/05/01 02:00:56;;;;;;;0.60;0.60;;;;;;;5.02;89.13;96535.47;29395;256;63009;-67
2021/05/01 02:01:27;;;;;;;0.60;0.60;;;;;;;5.02;89.32;96532.78;29373;202;63012;-66
2021/05/01 02:01:59;;;;;;;0.60;0.60;;;;;;;5.03;89.21;96537.09;29371;203;64013;-67
2021/05/01 02:02:30;;;;;;;0.60;0.60;;;;;;;5.02;89.05;96532.78;29373;268;63005;-68
2021/05/01 02:03:02;;;;;;;0.60;0.60;;;;;;;5.01;89.24;96533.84;29373;275;63009;-64
2021/05/01 02:03:33;;;;;;;0.55;0.55;;;;;;;5.00;89.40;96529.56;29373;196;63004;-66
2021/05/01 02:04:04;;;;;;;0.60;0.60;;;;;;;4.99;89.18;96531.44;29373;248;63009;-64
2021/05/01 02:04:36;;;;;;;0.60;0.60;;;;;;;4.99;89.38;96525.25;29373;339;63004;-66
2021/05/01 02:05:09;;;;;;;0.60;0.60;;;;;;;4.99;89.33;96528.75;29373;255;63009;-65
2021/05/01 02:05:44;;;;;;;0.60;0.60;;;;;;;4.98;89.35;96518.25;29371;286;64008;-67
2021/05/01 02:06:16;;;;;;;0.60;0.60;;;;;;;4.99;89.39;96519.88;29373;208;63009;-66
2021/05/01 02:06:47;;;;;;;0.60;0.60;;;;;;;5.00;89.35;96524.19;29373;343;63005;-67
2021/05/01 02:07:19;;;;;;;0.60;0.60;;;;;;;5.00;89.09;96516.09;29373;267;63009;-67
2021/05/01 02:07:50;;;;;;;0.60;0.60;;;;;;;4.99;88.93;96518.00;29373;198;63005;-67
2021/05/01 02:08:21;;;;;;;0.60;0.60;;;;;;;5.00;89.13;96521.50;29373;260;63009;-66
2021/05/01 02:08:53;;;;;;;0.60;0.60;;;;;;;5.00;89.06;96518.78;29373;285;63005;-66
2021/05/01 02:09:24;;;;;;;0.60;0.60;;;;;;;5.01;89.34;96520.41;29371;243;64013;-67
2021/05/01 02:09:55;;;;;;;0.60;0.60;;;;;;;5.01;89.28;96520.41;29373;235;63005;-67
2021/05/01 02:10:26;;;;;;;0.60;0.60;;;;;;;5.03;89.02;96523.66;29373;222;63009;-67
2021/05/01 02:10:57;;;;;;;0.60;0.60;;;;;;;5.02;89.13;96519.34;29373;260;63004;-66
2021/05/01 02:11:28;;;;;;;0.60;0.60;;;;;;;5.03;89.21;96524.44;29373;320;63009;-66
2021/05/01 02:12:01;;;;;;;0.60;0.60;;;;;;;5.03;88.97;96519.06;29373;310;63000;-65
2021/05/01 02:12:37;;;;;;;0.60;0.60;;;;;;;5.04;88.88;96517.19;29373;322;63009;-67
2021/05/01 02:13:09;;;;;;;0.60;0.60;;;;;;;5.04;89.01;96514.50;29371;280;64008;-66
2021/05/01 02:13:41;;;;;;;0.60;0.60;;;;;;;5.04;88.73;96519.88;29373;203;63009;-65
2021/05/01 02:14:12;;;;;;;0.60;0.60;;;;;;;5.04;89.00;96511.81;29373;368;63005;-65
2021/05/01 02:14:43;;;;;;;0.60;0.60;;;;;;;5.04;88.79;96515.31;29373;237;63009;-65
2021/05/01 02:15:18;;;;;;;0.60;0.60;;;;;;;5.06;88.93;96517.75;29373;200;63005;-63
2021/05/01 02:15:49;;;;;;;0.60;0.60;;;;;;;5.07;88.74;96519.34;29373;291;63009;-66
2021/05/01 02:16:22;;;;;;;0.60;0.60;;;;;;;5.08;89.04;96520.16;29371;306;64009;-67
2021/05/01 02:16:53;;;;;;;0.60;0.60;;;;;;;5.09;88.89;96519.09;29373;348;63015;-67
2021/05/01 02:17:24;;;;;;;0.60;0.60;;;;;;;5.04;89.04;96509.94;29371;221;64009;-66
2021/05/01 02:17:56;;;;;;;0.60;0.60;;;;;;;5.10;89.02;96526.88;29371;218;64013;-67
2021/05/01 02:18:28;;;;;;;0.60;0.60;;;;;;;5.11;88.74;96520.44;29371;197;64009;-67
2021/05/01 02:19:01;;;;;;;0.60;0.60;;;;;;;5.12;88.84;96519.38;29373;229;63009;-66
2021/05/01 02:19:33;;;;;;;0.60;0.60;;;;;;;5.11;88.80;96523.13;29373;377;63004;-66
2021/05/01 02:20:06;;;;;;;0.60;0.60;;;;;;;5.12;88.91;96518.56;29373;224;63009;-66
2021/05/01 02:20:38;;;;;;;0.60;0.60;;;;;;;5.12;89.08;96526.63;29373;226;63004;-65
2021/05/01 02:21:09;;;;;;;0.55;0.55;;;;;;;5.12;89.30;96515.88;29373;197;63014;-67
2021/05/01 02:21:40;;;;;;;0.62;0.62;;;;;;;5.13;89.05;96522.88;29373;303;63005;-66
2021/05/01 02:22:15;;;;;;;0.60;0.60;;;;;;;5.12;89.35;96522.06;29373;214;63009;-66
2021/05/01 02:22:46;;;;;;;0.60;0.60;;;;;;;5.13;89.18;96528.25;29373;257;63005;-66
2021/05/01 02:23:17;;;;;;;0.60;0.60;;;;;;;5.15;89.13;96520.72;29371;348;64013;-64
2021/05/01 02:23:49;;;;;;;0.60;0.60;;;;;;;5.14;89.17;96519.91;29373;202;63005;-65
2021/05/01 02:24:20;;;;;;;0.60;0.60;;;;;;;5.15;89.11;96520.72;29373;352;63009;-66
2021/05/01 02:24:51;;;;;;;0.60;0.60;;;;;;;5.16;88.91;96516.94;29373;274;63004;-66
2021/05/01 02:25:24;;;;;;;0.60;0.60;;;;;;;5.15;89.08;96526.91;29373;226;63009;-67
2021/05/01 02:25:55;;;;;;;0.60;0.60;;;;;;;5.14;88.69;96519.91;29395;363;63004;-66
2021/05/01 02:26:26;;;;;;;0.60;0.60;;;;;;;5.15;88.83;96521.53;29373;205;63015;-67
2021/05/01 02:26:57;;;;;;;0.60;0.60;;;;;;;5.14;88.51;96514.53;29373;202;63004;-67
2021/05/01 02:27:29;;;;;;;0.52;0.52;;;;;;;5.14;88.53;96517.22;29373;365;63008;-66
2021/05/01 02:28:02;;;;;;;0.60;0.60;;;;;;;5.13;88.51;96512.09;29373;202;63004;-67
2021/05/01 02:28:33;;;;;;;0.60;0.60;;;;;;;5.12;88.53;96507.81;29371;257;64013;-66
2021/05/01 02:29:04;;;;;;;0.60;0.60;;;;;;;5.11;88.72;96509.69;29373;221;63005;-67
2021/05/01 02:29:35;;;;;;;0.60;0.60;;;;;;;5.11;88.59;96508.88;29373;254;63009;-67
2021/05/01 02:30:10;;;;;;;0.60;0.60;;;;;;;5.09;88.54;96509.13;29395;198;63005;-66
2021/05/01 02:30:41;;;;;;;0.60;0.60;;;;;;;5.07;88.78;96503.22;29373;291;63009;-67
2021/05/01 02:31:12;;;;;;;0.60;0.60;;;;;;;5.07;88.54;96503.22;29373;297;63005;-67
2021/05/01 02:31:46;;;;;;;0.60;0.60;;;;;;;5.08;88.90;96509.41;29373;339;63009;-68
2021/05/01 02:32:18;;;;;;;0.60;0.60;;;;;;;5.09;88.88;96513.72;29373;249;63004;-67
2021/05/01 02:32:50;;;;;;;0.60;0.60;;;;;;;5.09;88.69;96508.34;29373;227;63009;-67
2021/05/01 02:33:21;;;;;;;0.55;0.55;;;;;;;5.07;88.79;96503.22;29371;261;64009;-64
2021/05/01 02:33:53;;;;;;;0.60;0.60;;;;;;;5.07;88.80;96505.91;29373;232;63009;-65
2021/05/01 02:34:24;;;;;;;0.60;0.60;;;;;;;5.06;88.76;96496.22;29373;336;63004;-66
2021/05/01 02:34:55;;;;;;;0.50;0.50;;;;;;;5.07;88.89;96500.53;29373;338;63008;-67
2021/05/01 02:35:31;;;;;;;0.60;0.60;;;;;;;5.05;89.03;96495.41;29373;264;63005;-63